sensor_id;sensor_type;location;lat;lon;timestamp;pressure;altitude;pressure_sealevel;temperature;humidity
4346;BME280;2186;49.866;7.986;2023-04-03T00:00:32;101316.69;;;6.03;92.20
4346;BME280;2186;49.866;7.986;2023-04-03T00:02:59;101321.16;;;6.10;90.14
4346;BME280;2186;49.866;7.986;2023-04-03T00:05:26;101312.25;;;5.94;88.67
4346;BME280;2186;49.866;7.986;2023-04-03T00:07:52;101314.06;;;6.03;87.93
4346;BME280;2186;49.866;7.986;2023-04-03T00:10:19;101320.25;;;6.06;87.30
4346;BME280;2186;49.866;7.986;2023-04-03T00:12:45;101319.19;;;5.86;87.98
4346;BME280;2186;49.866;7.986;2023-04-03T00:15:12;101315.53;;;5.67;87.81
4346;BME280;2186;49.866;7.986;2023-04-03T00:17:38;101322.66;;;5.76;88.36
4346;BME280;2186;49.866;7.986;2023-04-03T00:20:06;101323.59;;;5.88;89.01
4346;BME280;2186;49.866;7.986;2023-04-03T00:22:32;101319.28;;;5.92;88.44
4346;BME280;2186;49.866;7.986;2023-04-03T00:24:59;101322.09;;;6.21;87.22
4346;BME280;2186;49.866;7.986;2023-04-03T00:27:25;101320.19;;;5.94;89.08
4346;BME280;2186;49.866;7.986;2023-04-03T00:29:52;101313.94;;;5.89;89.34
4346;BME280;2186;49.866;7.986;2023-04-03T00:32:18;101320.34;;;6.17;88.83
4346;BME280;2186;49.866;7.986;2023-04-03T00:34:45;101311.41;;;5.98;89.63
4346;BME280;2186;49.866;7.986;2023-04-03T00:37:11;101314.28;;;6.36;88.68
4346;BME280;2186;49.866;7.986;2023-04-03T00:39:38;101322.19;;;6.39;87.13
4346;BME280;2186;49.866;7.986;2023-04-03T00:42:04;101320.44;;;6.40;86.64
4346;BME280;2186;49.866;7.986;2023-04-03T00:47:01;101312.34;;;6.11;86.24
4346;BME280;2186;49.866;7.986;2023-04-03T00:49:28;101312.53;;;6.43;85.41
4346;BME280;2186;49.866;7.986;2023-04-03T00:51:56;101315.97;;;6.27;84.76
4346;BME280;2186;49.866;7.986;2023-04-03T00:54:25;101314.28;;;6.44;84.33
4346;BME280;2186;49.866;7.986;2023-04-03T00:56:53;101315.00;;;6.11;85.24
4346;BME280;2186;49.866;7.986;2023-04-03T00:59:24;101310.50;;;5.98;86.08
4346;BME280;2186;49.866;7.986;2023-04-03T01:01:54;101311.28;;;5.86;87.79
4346;BME280;2186;49.866;7.986;2023-04-03T01:04:34;101311.38;;;5.95;91.00
4346;BME280;2186;49.866;7.986;2023-04-03T01:07:05;101300.72;;;5.83;90.26
4346;BME280;2186;49.866;7.986;2023-04-03T01:09:33;101311.38;;;5.90;90.39
4346;BME280;2186;49.866;7.986;2023-04-03T01:12:22;101316.66;;;5.95;89.99
4346;BME280;2186;49.866;7.986;2023-04-03T01:14:56;101306.97;;;5.94;90.67
4346;BME280;2186;49.866;7.986;2023-04-03T01:17:52;101311.47;;;6.09;90.33
4346;BME280;2186;49.866;7.986;2023-04-03T01:23:18;101315.81;;;5.99;91.54
4346;BME280;2186;49.866;7.986;2023-04-03T01:25:52;101305.22;;;5.93;90.92
4346;BME280;2186;49.866;7.986;2023-04-03T01:28:25;101303.47;;;5.98;90.94
4346;BME280;2186;49.866;7.986;2023-04-03T01:31:22;101304.34;;;5.94;89.52
4346;BME280;2186;49.866;7.986;2023-04-03T01:33:51;101300.81;;;5.92;88.83
4346;BME280;2186;49.866;7.986;2023-04-03T01:36:25;101300.81;;;5.92;89.25
4346;BME280;2186;49.866;7.986;2023-04-03T01:38:52;101301.72;;;5.99;89.84
4346;BME280;2186;49.866;7.986;2023-04-03T01:41:20;101294.78;;;6.14;88.47
4346;BME280;2186;49.866;7.986;2023-04-03T01:43:48;101304.34;;;5.97;88.25
4346;BME280;2186;49.866;7.986;2023-04-03T01:46:16;101300.81;;;5.95;88.88
4346;BME280;2186;49.866;7.986;2023-04-03T01:48:43;101303.34;;;5.84;88.46
4346;BME280;2186;49.866;7.986;2023-04-03T01:51:10;101304.25;;;5.85;88.03
4346;BME280;2186;49.866;7.986;2023-04-03T01:53:36;101304.25;;;5.88;88.64
4346;BME280;2186;49.866;7.986;2023-04-03T01:56:03;101307.72;;;5.81;89.27
4346;BME280;2186;49.866;7.986;2023-04-03T01:58:30;101312.94;;;5.73;87.22
4346;BME280;2186;49.866;7.986;2023-04-03T02:00:57;101309.38;;;5.67;88.97
4346;BME280;2186;49.866;7.986;2023-04-03T02:03:23;101308.78;;;6.03;87.55
4346;BME280;2186;49.866;7.986;2023-04-03T02:05:50;101306.00;;;5.84;86.13
4346;BME280;2186;49.866;7.986;2023-04-03T02:08:16;101313.13;;;5.90;85.93
4346;BME280;2186;49.866;7.986;2023-04-03T02:10:47;101307.63;;;5.65;86.90
4346;BME280;2186;49.866;7.986;2023-04-03T02:13:13;101309.38;;;5.67;86.61
4346;BME280;2186;49.866;7.986;2023-04-03T02:15:40;101316.44;;;5.72;86.60
4346;BME280;2186;49.866;7.986;2023-04-03T02:18:07;101303.25;;;5.68;87.41
4346;BME280;2186;49.866;7.986;2023-04-03T02:20:33;101303.25;;;5.72;88.13
4346;BME280;2186;49.866;7.986;2023-04-03T02:23:01;101300.47;;;5.51;88.58
4346;BME280;2186;49.866;7.986;2023-04-03T02:25:28;101298.66;;;5.45;88.75
4346;BME280;2186;49.866;7.986;2023-04-03T02:27:54;101289.97;;;5.58;89.43
4346;BME280;2186;49.866;7.986;2023-04-03T02:30:20;101296.00;;;5.42;89.37
4346;BME280;2186;49.866;7.986;2023-04-03T02:32:47;101310.13;;;5.50;89.89
4346;BME280;2186;49.866;7.986;2023-04-03T02:35:13;101292.50;;;5.46;90.43
4346;BME280;2186;49.866;7.986;2023-04-03T02:37:40;101296.72;;;5.23;92.06
4346;BME280;2186;49.866;7.986;2023-04-03T02:40:08;101293.34;;;5.39;91.21
4346;BME280;2186;49.866;7.986;2023-04-03T02:42:35;101291.72;;;5.59;90.89
4346;BME280;2186;49.866;7.986;2023-04-03T02:45:01;101296.19;;;5.65;90.64
4346;BME280;2186;49.866;7.986;2023-04-03T02:47:27;101300.56;;;5.63;90.56
4346;BME280;2186;49.866;7.986;2023-04-03T02:49:54;101296.09;;;5.53;89.89
4346;BME280;2186;49.866;7.986;2023-04-03T02:52:21;101297.75;;;5.40;90.91
4346;BME280;2186;49.866;7.986;2023-04-03T02:54:47;101296.69;;;5.21;90.39
4346;BME280;2186;49.866;7.986;2023-04-03T02:57:14;101305.66;;;5.43;90.06
4346;BME280;2186;49.866;7.986;2023-04-03T02:59:41;101301.16;;;5.28;90.71
4346;BME280;2186;49.866;7.986;2023-04-03T03:02:08;101295.06;;;5.35;90.79
4346;BME280;2186;49.866;7.986;2023-04-03T03:04:35;101307.44;;;5.44;88.80
4346;BME280;2186;49.866;7.986;2023-04-03T03:07:02;101304.56;;;5.20;91.22
4346;BME280;2186;49.866;7.986;2023-04-03T03:09:29;101306.38;;;5.22;91.46
4346;BME280;2186;49.866;7.986;2023-04-03T03:11:56;101310.78;;;5.23;91.83
4346;BME280;2186;49.866;7.986;2023-04-03T03:14:23;101308.94;;;5.19;91.71
4346;BME280;2186;49.866;7.986;2023-04-03T03:16:49;101312.41;;;5.12;91.71
4346;BME280;2186;49.866;7.986;2023-04-03T03:19:16;101315.16;;;5.24;91.67
4346;BME280;2186;49.866;7.986;2023-04-03T03:21:42;101313.41;;;5.22;91.39
4346;BME280;2186;49.866;7.986;2023-04-03T03:24:09;101315.97;;;5.17;91.39
4346;BME280;2186;49.866;7.986;2023-04-03T03:26:35;101310.66;;;5.13;90.90
4346;BME280;2186;49.866;7.986;2023-04-03T03:29:02;101310.66;;;5.14;91.46
4346;BME280;2186;49.866;7.986;2023-04-03T03:31:28;101308.94;;;5.19;91.16
4346;BME280;2186;49.866;7.986;2023-04-03T03:33:55;101310.69;;;5.16;91.77
4346;BME280;2186;49.866;7.986;2023-04-03T03:36:21;101311.72;;;5.31;91.86
4346;BME280;2186;49.866;7.986;2023-04-03T03:38:48;101311.75;;;5.34;91.41
4346;BME280;2186;49.866;7.986;2023-04-03T03:41:14;101310.97;;;5.48;91.33
4346;BME280;2186;49.866;7.986;2023-04-03T03:43:41;101309.28;;;5.56;91.49
4346;BME280;2186;49.866;7.986;2023-04-03T03:46:07;101311.66;;;5.24;91.76
4346;BME280;2186;49.866;7.986;2023-04-03T03:48:34;101308.81;;;5.07;93.23
4346;BME280;2186;49.866;7.986;2023-04-03T03:51:00;101305.38;;;5.10;93.14
4346;BME280;2186;49.866;7.986;2023-04-03T03:53:27;101315.03;;;5.11;93.70
4346;BME280;2186;49.866;7.986;2023-04-03T03:55:53;101313.25;;;5.08;93.87
4346;BME280;2186;49.866;7.986;2023-04-03T03:58:20;101309.63;;;4.97;94.30
4346;BME280;2186;49.866;7.986;2023-04-03T04:00:46;101315.09;;;5.20;94.63
4346;BME280;2186;49.866;7.986;2023-04-03T04:03:13;101311.41;;;4.99;94.95
4346;BME280;2186;49.866;7.986;2023-04-03T04:05:39;101299.09;;;4.98;95.41
4346;BME280;2186;49.866;7.986;2023-04-03T04:08:06;101305.22;;;4.97;95.16
4346;BME280;2186;49.866;7.986;2023-04-03T04:10:33;101305.25;;;5.00;94.46
4346;BME280;2186;49.866;7.986;2023-04-03T04:12:59;101314.22;;;5.19;94.55
4346;BME280;2186;49.866;7.986;2023-04-03T04:15:26;101313.19;;;5.02;94.26
4346;BME280;2186;49.866;7.986;2023-04-03T04:17:53;101306.41;;;5.25;93.60
4346;BME280;2186;49.866;7.986;2023-04-03T04:20:20;101309.66;;;5.03;94.20
4346;BME280;2186;49.866;7.986;2023-04-03T04:22:46;101313.47;;;5.34;94.42
4346;BME280;2186;49.866;7.986;2023-04-03T04:25:13;101305.66;;;5.40;92.56
4346;BME280;2186;49.866;7.986;2023-04-03T04:27:39;101312.56;;;5.29;93.21
4346;BME280;2186;49.866;7.986;2023-04-03T04:30:06;101316.81;;;5.12;92.61
4346;BME280;2186;49.866;7.986;2023-04-03T04:32:33;101318.47;;;5.05;93.99
4346;BME280;2186;49.866;7.986;2023-04-03T04:34:59;101322.53;;;4.74;95.36
4346;BME280;2186;49.866;7.986;2023-04-03T04:37:26;101321.91;;;4.95;94.66
4346;BME280;2186;49.866;7.986;2023-04-03T04:39:53;101312.31;;;5.03;94.44
4346;BME280;2186;49.866;7.986;2023-04-03T04:42:19;101318.47;;;5.05;94.29
4346;BME280;2186;49.866;7.986;2023-04-03T04:44:45;101320.59;;;4.59;94.41
4346;BME280;2186;49.866;7.986;2023-04-03T04:47:12;101328.47;;;4.56;94.37
4346;BME280;2186;49.866;7.986;2023-04-03T04:49:38;101323.34;;;4.67;93.40
4346;BME280;2186;49.866;7.986;2023-04-03T04:52:05;101315.53;;;4.76;92.21
4346;BME280;2186;49.866;7.986;2023-04-03T04:54:32;101312.00;;;4.74;91.72
4346;BME280;2186;49.866;7.986;2023-04-03T04:56:59;101326.00;;;4.71;90.78
4346;BME280;2186;49.866;7.986;2023-04-03T04:59:25;101316.47;;;4.81;90.77
4346;BME280;2186;49.866;7.986;2023-04-03T05:01:52;101330.38;;;4.68;90.79
4346;BME280;2186;49.866;7.986;2023-04-03T05:04:18;101330.13;;;4.50;90.82
4346;BME280;2186;49.866;7.986;2023-04-03T05:06:45;101333.78;;;4.61;91.29
4346;BME280;2186;49.866;7.986;2023-04-03T05:09:11;101331.97;;;4.55;91.25
4346;BME280;2186;49.866;7.986;2023-04-03T05:11:38;101341.47;;;4.45;91.67
4346;BME280;2186;49.866;7.986;2023-04-03T05:14:04;101340.75;;;4.57;90.87
4346;BME280;2186;49.866;7.986;2023-04-03T05:16:34;101338.47;;;4.85;91.36
4346;BME280;2186;49.866;7.986;2023-04-03T05:19:01;101340.09;;;4.76;90.85
4346;BME280;2186;49.866;7.986;2023-04-03T05:21:27;101345.41;;;4.80;90.41
4346;BME280;2186;49.866;7.986;2023-04-03T05:23:59;101349.78;;;4.79;90.74
4346;BME280;2186;49.866;7.986;2023-04-03T05:26:30;101353.94;;;4.60;90.22
4346;BME280;2186;49.866;7.986;2023-04-03T05:28:56;101356.72;;;4.69;89.18
4346;BME280;2186;49.866;7.986;2023-04-03T05:31:23;101363.59;;;4.60;88.52
4346;BME280;2186;49.866;7.986;2023-04-03T05:33:50;101362.66;;;4.55;87.84
4346;BME280;2186;49.866;7.986;2023-04-03T05:36:16;101356.56;;;4.59;87.39
4346;BME280;2186;49.866;7.986;2023-04-03T05:38:43;101366.75;;;4.34;87.89
4346;BME280;2186;49.866;7.986;2023-04-03T05:41:10;101366.91;;;4.43;88.44
4346;BME280;2186;49.866;7.986;2023-04-03T05:43:36;101367.84;;;4.49;87.42
4346;BME280;2186;49.866;7.986;2023-04-03T05:46:13;101376.66;;;4.52;88.13
4346;BME280;2186;49.866;7.986;2023-04-03T05:48:40;101378.47;;;4.56;87.16
4346;BME280;2186;49.866;7.986;2023-04-03T05:51:09;101378.38;;;4.49;87.52
4346;BME280;2186;49.866;7.986;2023-04-03T05:53:39;101381.13;;;4.58;87.70
4346;BME280;2186;49.866;7.986;2023-04-03T05:56:06;101377.38;;;4.40;88.12
4346;BME280;2186;49.866;7.986;2023-04-03T05:58:33;101376.75;;;4.60;88.01
4346;BME280;2186;49.866;7.986;2023-04-03T06:00:59;101383.59;;;4.45;87.82
4346;BME280;2186;49.866;7.986;2023-04-03T06:03:26;101391.25;;;4.27;87.89
4346;BME280;2186;49.866;7.986;2023-04-03T06:05:53;101389.69;;;4.41;88.32
4346;BME280;2186;49.866;7.986;2023-04-03T06:08:20;101381.81;;;4.44;87.99
4346;BME280;2186;49.866;7.986;2023-04-03T06:10:46;101391.91;;;4.14;88.38
4346;BME280;2186;49.866;7.986;2023-04-03T06:13:14;101382.03;;;3.98;88.59
4346;BME280;2186;49.866;7.986;2023-04-03T06:15:40;101386.53;;;4.08;89.11
4346;BME280;2186;49.866;7.986;2023-04-03T06:18:06;101387.38;;;4.05;89.55
4346;BME280;2186;49.866;7.986;2023-04-03T06:20:33;101386.75;;;4.23;89.41
4346;BME280;2186;49.866;7.986;2023-04-03T06:22:59;101395.81;;;4.39;88.88
4346;BME280;2186;49.866;7.986;2023-04-03T06:25:26;101405.28;;;4.29;88.60
4346;BME280;2186;49.866;7.986;2023-04-03T06:27:52;101405.28;;;4.28;89.47
4346;BME280;2186;49.866;7.986;2023-04-03T06:30:21;101407.94;;;4.29;89.32
4346;BME280;2186;49.866;7.986;2023-04-03T06:32:48;101410.41;;;4.20;88.42
4346;BME280;2186;49.866;7.986;2023-04-03T06:35:14;101413.09;;;4.23;88.46
4346;BME280;2186;49.866;7.986;2023-04-03T06:37:41;101401.09;;;4.40;87.73
4346;BME280;2186;49.866;7.986;2023-04-03T06:40:20;101410.97;;;4.57;87.84
4346;BME280;2186;49.866;7.986;2023-04-03T06:42:47;101414.50;;;4.59;88.00
4346;BME280;2186;49.866;7.986;2023-04-03T06:45:14;101410.34;;;4.78;87.88
4346;BME280;2186;49.866;7.986;2023-04-03T06:47:40;101417.38;;;4.79;87.73
4346;BME280;2186;49.866;7.986;2023-04-03T06:50:08;101421.06;;;4.93;87.46
4346;BME280;2186;49.866;7.986;2023-04-03T06:52:37;101412.19;;;4.83;86.54
4346;BME280;2186;49.866;7.986;2023-04-03T06:55:06;101421.91;;;4.87;86.87
4346;BME280;2186;49.866;7.986;2023-04-03T06:57:33;101421.31;;;5.10;86.91
4346;BME280;2186;49.866;7.986;2023-04-03T07:00:00;101422.00;;;4.95;85.88
4346;BME280;2186;49.866;7.986;2023-04-03T07:02:26;101422.59;;;4.72;86.14
4346;BME280;2186;49.866;7.986;2023-04-03T07:04:53;101438.50;;;4.80;86.37
4346;BME280;2186;49.866;7.986;2023-04-03T07:07:19;101449.63;;;4.62;87.00
4346;BME280;2186;49.866;7.986;2023-04-03T07:09:46;101428.88;;;4.82;86.73
4346;BME280;2186;49.866;7.986;2023-04-03T07:12:14;101452.69;;;4.93;85.97
4346;BME280;2186;49.866;7.986;2023-04-03T07:14:41;101436.88;;;4.91;85.92
4346;BME280;2186;49.866;7.986;2023-04-03T07:17:07;101440.53;;;5.02;85.56
4346;BME280;2186;49.866;7.986;2023-04-03T07:19:34;101443.16;;;5.01;87.56
4346;BME280;2186;49.866;7.986;2023-04-03T07:22:00;101457.50;;;5.24;85.26
4346;BME280;2186;49.866;7.986;2023-04-03T07:24:27;101458.53;;;5.37;84.71
4346;BME280;2186;49.866;7.986;2023-04-03T07:26:53;101456.44;;;5.10;84.60
4346;BME280;2186;49.866;7.986;2023-04-03T07:29:20;101453.13;;;5.26;85.07
4346;BME280;2186;49.866;7.986;2023-04-03T07:31:47;101459.28;;;5.27;84.33
4346;BME280;2186;49.866;7.986;2023-04-03T07:34:14;101453.34;;;5.48;84.55
4346;BME280;2186;49.866;7.986;2023-04-03T07:36:41;101455.25;;;5.61;84.96
4346;BME280;2186;49.866;7.986;2023-04-03T07:39:07;101451.97;;;5.83;82.99
4346;BME280;2186;49.866;7.986;2023-04-03T07:41:34;101457.28;;;5.88;81.96
4346;BME280;2186;49.866;7.986;2023-04-03T07:44:00;101458.09;;;5.78;80.80
4346;BME280;2186;49.866;7.986;2023-04-03T07:46:27;101456.53;;;5.95;81.42
4346;BME280;2186;49.866;7.986;2023-04-03T07:48:53;101453.69;;;5.78;79.18
4346;BME280;2186;49.866;7.986;2023-04-03T07:51:23;101455.34;;;5.67;79.19
4346;BME280;2186;49.866;7.986;2023-04-03T07:53:50;101456.53;;;5.95;80.16
4346;BME280;2186;49.866;7.986;2023-04-03T07:56:17;101462.78;;;6.08;79.98
4346;BME280;2186;49.866;7.986;2023-04-03T07:58:43;101442.41;;;5.90;77.83
4346;BME280;2186;49.866;7.986;2023-04-03T08:01:09;101467.13;;;6.01;78.88
4346;BME280;2186;49.866;7.986;2023-04-03T08:03:36;101455.03;;;6.29;79.43
4346;BME280;2186;49.866;7.986;2023-04-03T08:06:05;101459.41;;;6.27;78.84
4346;BME280;2186;49.866;7.986;2023-04-03T08:08:40;101468.19;;;6.21;77.80
4346;BME280;2186;49.866;7.986;2023-04-03T08:11:07;101484.00;;;6.17;76.60
4346;BME280;2186;49.866;7.986;2023-04-03T08:13:34;101461.91;;;6.09;77.44
4346;BME280;2186;49.866;7.986;2023-04-03T08:18:35;101455.88;;;6.20;78.91
4346;BME280;2186;49.866;7.986;2023-04-03T08:21:05;101471.69;;;6.20;77.95
4346;BME280;2186;49.866;7.986;2023-04-03T08:23:32;101467.28;;;6.19;77.82
4346;BME280;2186;49.866;7.986;2023-04-03T08:25:58;101459.53;;;6.44;77.27
4346;BME280;2186;49.866;7.986;2023-04-03T08:28:24;101466.56;;;6.42;78.71
4346;BME280;2186;49.866;7.986;2023-04-03T08:30:51;101465.75;;;6.46;77.47
4346;BME280;2186;49.866;7.986;2023-04-03T08:33:17;101464.91;;;6.56;79.46
4346;BME280;2186;49.866;7.986;2023-04-03T08:35:44;101460.53;;;6.58;77.17
4346;BME280;2186;49.866;7.986;2023-04-03T08:38:10;101472.69;;;6.36;77.85
4346;BME280;2186;49.866;7.986;2023-04-03T08:40:37;101464.75;;;6.33;77.48
4346;BME280;2186;49.866;7.986;2023-04-03T08:43:27;101475.19;;;6.18;78.00
4346;BME280;2186;49.866;7.986;2023-04-03T08:45:57;101472.97;;;6.74;80.89
4346;BME280;2186;49.866;7.986;2023-04-03T08:48:40;101478.22;;;6.71;78.22
4346;BME280;2186;49.866;7.986;2023-04-03T08:51:14;101472.97;;;6.74;76.20
4346;BME280;2186;49.866;7.986;2023-04-03T08:54:02;101481.59;;;6.49;76.14
4346;BME280;2186;49.866;7.986;2023-04-03T08:56:31;101481.69;;;6.63;76.50
4346;BME280;2186;49.866;7.986;2023-04-03T08:59:03;101479.09;;;6.69;77.15
4346;BME280;2186;49.866;7.986;2023-04-03T09:01:37;101489.53;;;6.50;75.02
4346;BME280;2186;49.866;7.986;2023-04-03T09:04:12;101478.88;;;6.41;73.28
4346;BME280;2186;49.866;7.986;2023-04-03T09:06:39;101485.22;;;6.66;76.08
4346;BME280;2186;49.866;7.986;2023-04-03T09:09:15;101485.25;;;6.69;73.06
4346;BME280;2186;49.866;7.986;2023-04-03T09:12:04;101479.22;;;6.86;74.21
4346;BME280;2186;49.866;7.986;2023-04-03T09:17:33;101481.00;;;6.97;73.19
4346;BME280;2186;49.866;7.986;2023-04-03T09:20:15;101481.84;;;6.86;73.65
4346;BME280;2186;49.866;7.986;2023-04-03T09:22:46;101469.59;;;7.01;71.85
4346;BME280;2186;49.866;7.986;2023-04-03T09:25:27;101479.25;;;6.96;73.49
4346;BME280;2186;49.866;7.986;2023-04-03T09:27:57;101478.34;;;6.93;72.68
4346;BME280;2186;49.866;7.986;2023-04-03T09:30:25;101476.72;;;7.19;74.48
4346;BME280;2186;49.866;7.986;2023-04-03T09:32:55;101475.00;;;7.30;72.17
4346;BME280;2186;49.866;7.986;2023-04-03T09:35:33;101473.28;;;7.43;73.83
4346;BME280;2186;49.866;7.986;2023-04-03T09:40:41;101483.06;;;7.68;70.92
4346;BME280;2186;49.866;7.986;2023-04-03T09:43:37;101468.00;;;7.54;67.60
4346;BME280;2186;49.866;7.986;2023-04-03T09:46:24;101464.47;;;7.47;69.49
4346;BME280;2186;49.866;7.986;2023-04-03T09:48:56;101483.00;;;7.52;68.16
4346;BME280;2186;49.866;7.986;2023-04-03T09:51:34;101473.31;;;7.51;67.31
4346;BME280;2186;49.866;7.986;2023-04-03T09:54:24;101465.31;;;7.37;68.80
4346;BME280;2186;49.866;7.986;2023-04-03T09:56:53;101459.28;;;7.87;66.29
4346;BME280;2186;49.866;7.986;2023-04-03T09:59:22;101481.25;;;7.48;64.50
4346;BME280;2186;49.866;7.986;2023-04-03T10:02:00;101462.72;;;7.49;65.15
4346;BME280;2186;49.866;7.986;2023-04-03T10:04:38;101466.34;;;7.86;65.51
4346;BME280;2186;49.866;7.986;2023-04-03T10:07:35;101476.03;;;7.73;64.09
4346;BME280;2186;49.866;7.986;2023-04-03T10:12:41;101477.38;;;6.78;63.52
4346;BME280;2186;49.866;7.986;2023-04-03T10:15:12;101469.56;;;6.98;65.20
4346;BME280;2186;49.866;7.986;2023-04-03T10:36:09;101462.75;;;7.55;67.27
4346;BME280;2186;49.866;7.986;2023-04-03T10:42:03;101470.69;;;7.60;66.64
4346;BME280;2186;49.866;7.986;2023-04-03T10:45:14;101465.31;;;7.37;66.88
4346;BME280;2186;49.866;7.986;2023-04-03T10:53:31;101469.69;;;7.24;69.84
4346;BME280;2186;49.866;7.986;2023-04-03T10:58:58;101462.75;;;7.55;65.41
4346;BME280;2186;49.866;7.986;2023-04-03T11:01:33;101469.88;;;7.93;67.48
4346;BME280;2186;49.866;7.986;2023-04-03T11:04:04;101452.25;;;7.95;66.02
4346;BME280;2186;49.866;7.986;2023-04-03T11:06:47;101452.22;;;8.07;64.37
4346;BME280;2186;49.866;7.986;2023-04-03T11:11:46;101455.69;;;7.66;65.97
4346;BME280;2186;49.866;7.986;2023-04-03T11:14:26;101454.78;;;7.49;64.18
4346;BME280;2186;49.866;7.986;2023-04-03T11:17:04;101455.69;;;7.60;65.01
4346;BME280;2186;49.866;7.986;2023-04-03T11:22:34;101442.50;;;7.88;63.73
4346;BME280;2186;49.866;7.986;2023-04-03T11:25:16;101435.47;;;8.43;63.96
4346;BME280;2186;49.866;7.986;2023-04-03T11:28:04;101425.78;;;7.95;62.01
4346;BME280;2186;49.866;7.986;2023-04-03T11:34:04;101435.47;;;8.16;64.22
4346;BME280;2186;49.866;7.986;2023-04-03T11:36:39;101422.22;;;8.20;66.55
4346;BME280;2186;49.866;7.986;2023-04-03T11:39:19;101441.66;;;8.01;62.59
4346;BME280;2186;49.866;7.986;2023-04-03T11:41:47;101424.84;;;7.78;63.31
4346;BME280;2186;49.866;7.986;2023-04-03T11:44:36;101414.28;;;8.08;63.53
4346;BME280;2186;49.866;7.986;2023-04-03T11:47:09;101424.00;;;7.83;61.27
4346;BME280;2186;49.866;7.986;2023-04-03T11:50:00;101431.94;;;8.11;61.18
4346;BME280;2186;49.866;7.986;2023-04-03T12:16:28;101407.13;;;8.73;60.19
4346;BME280;2186;49.866;7.986;2023-04-03T12:19:01;101395.66;;;8.71;61.03
4346;BME280;2186;49.866;7.986;2023-04-03T12:45:59;101368.28;;;8.70;57.97
4346;BME280;2186;49.866;7.986;2023-04-03T12:48:31;101377.06;;;8.84;58.07
4346;BME280;2186;49.866;7.986;2023-04-03T12:51:00;101377.91;;;8.94;57.40
4346;BME280;2186;49.866;7.986;2023-04-03T12:53:35;101368.28;;;8.67;59.92
4346;BME280;2186;49.866;7.986;2023-04-03T12:56:22;101381.47;;;8.84;57.81
4346;BME280;2186;49.866;7.986;2023-04-03T12:58:50;101364.75;;;8.70;56.80
4346;BME280;2186;49.866;7.986;2023-04-03T13:01:21;101375.34;;;8.73;58.08
4346;BME280;2186;49.866;7.986;2023-04-03T13:03:51;101374.53;;;8.32;54.58
4346;BME280;2186;49.866;7.986;2023-04-03T13:08:55;101367.31;;;8.91;56.36
4346;BME280;2186;49.866;7.986;2023-04-03T13:11:28;101365.56;;;8.92;55.59
4346;BME280;2186;49.866;7.986;2023-04-03T13:14:01;101348.72;;;8.96;53.34
4346;BME280;2186;49.866;7.986;2023-04-03T13:16:29;101367.19;;;9.20;51.82
4346;BME280;2186;49.866;7.986;2023-04-03T13:18:56;101388.59;;;8.70;53.99
4346;BME280;2186;49.866;7.986;2023-04-03T13:21:25;101358.66;;;8.26;54.49
4346;BME280;2186;49.866;7.986;2023-04-03T13:23:55;101355.06;;;8.56;54.24
4346;BME280;2186;49.866;7.986;2023-04-03T13:26:41;101355.09;;;8.47;53.10
4346;BME280;2186;49.866;7.986;2023-04-03T13:29:21;101369.13;;;8.81;52.09
4346;BME280;2186;49.866;7.986;2023-04-03T13:31:56;101355.91;;;8.63;53.32
4346;BME280;2186;49.866;7.986;2023-04-03T13:34:26;101345.16;;;9.03;52.15
4346;BME280;2186;49.866;7.986;2023-04-03T13:39:29;101355.09;;;8.52;52.40
4346;BME280;2186;49.866;7.986;2023-04-03T13:41:58;101350.59;;;8.78;52.33
4346;BME280;2186;49.866;7.986;2023-04-03T13:44:29;101343.28;;;9.23;54.47
4346;BME280;2186;49.866;7.986;2023-04-03T13:47:21;101352.28;;;8.87;51.33
4346;BME280;2186;49.866;7.986;2023-04-03T13:52:47;101340.56;;;9.29;52.11
4346;BME280;2186;49.866;7.986;2023-04-03T13:55:25;101349.56;;;9.04;51.54
4346;BME280;2186;49.866;7.986;2023-04-03T13:58:01;101344.16;;;9.24;51.57
4346;BME280;2186;49.866;7.986;2023-04-03T14:00:34;101359.31;;;9.05;51.81
4346;BME280;2186;49.866;7.986;2023-04-03T14:03:00;101330.94;;;9.19;49.64
4346;BME280;2186;49.866;7.986;2023-04-03T14:05:27;101329.16;;;9.15;51.68
4346;BME280;2186;49.866;7.986;2023-04-03T14:07:54;101333.63;;;9.10;50.10
4346;BME280;2186;49.866;7.986;2023-04-03T14:10:21;101336.19;;;9.25;50.62
4346;BME280;2186;49.866;7.986;2023-04-03T14:12:48;101316.84;;;9.03;50.91
4346;BME280;2186;49.866;7.986;2023-04-03T14:15:18;101325.72;;;9.01;49.05
4346;BME280;2186;49.866;7.986;2023-04-03T14:17:45;101323.84;;;9.19;48.56
4346;BME280;2186;49.866;7.986;2023-04-03T14:20:17;101319.25;;;9.47;51.43
4346;BME280;2186;49.866;7.986;2023-04-03T14:22:44;101331.06;;;8.96;49.32
4346;BME280;2186;49.866;7.986;2023-04-03T14:25:11;101321.41;;;8.83;49.31
4346;BME280;2186;49.866;7.986;2023-04-03T14:27:43;101310.72;;;8.95;49.62
4346;BME280;2186;49.866;7.986;2023-04-03T14:32:46;101320.31;;;9.16;50.88
4346;BME280;2186;49.866;7.986;2023-04-03T14:35:14;101314.94;;;9.28;50.85
4346;BME280;2186;49.866;7.986;2023-04-03T14:37:41;101307.06;;;9.14;49.31
4346;BME280;2186;49.866;7.986;2023-04-03T14:40:11;101311.50;;;9.12;49.70
4346;BME280;2186;49.866;7.986;2023-04-03T14:42:38;101297.28;;;9.26;50.63
4346;BME280;2186;49.866;7.986;2023-04-03T14:45:07;101300.75;;;9.35;49.74
4346;BME280;2186;49.866;7.986;2023-04-03T14:47:39;101314.25;;;8.97;48.56
4346;BME280;2186;49.866;7.986;2023-04-03T14:50:07;101319.56;;;8.97;48.19
4346;BME280;2186;49.866;7.986;2023-04-03T14:52:35;101307.22;;;8.88;47.57
4346;BME280;2186;49.866;7.986;2023-04-03T14:55:05;101306.28;;;9.00;48.32
4346;BME280;2186;49.866;7.986;2023-04-03T14:57:32;101309.69;;;9.17;48.31
4346;BME280;2186;49.866;7.986;2023-04-03T14:59:59;101311.53;;;9.09;48.53
4346;BME280;2186;49.866;7.986;2023-04-03T15:02:35;101297.38;;;9.10;49.55
4346;BME280;2186;49.866;7.986;2023-04-03T15:05:05;101309.00;;;8.91;48.50
4346;BME280;2186;49.866;7.986;2023-04-03T15:07:35;101295.66;;;9.02;47.83
4346;BME280;2186;49.866;7.986;2023-04-03T15:10:20;101298.22;;;9.18;47.92
4346;BME280;2186;49.866;7.986;2023-04-03T15:12:47;101299.13;;;9.13;48.95
4346;BME280;2186;49.866;7.986;2023-04-03T15:15:16;101301.69;;;9.25;49.43
4346;BME280;2186;49.866;7.986;2023-04-03T15:17:44;101296.53;;;9.05;49.97
4346;BME280;2186;49.866;7.986;2023-04-03T15:20:16;101302.00;;;8.70;47.94
4346;BME280;2186;49.866;7.986;2023-04-03T15:22:43;101298.38;;;8.89;48.36
4346;BME280;2186;49.866;7.986;2023-04-03T15:25:10;101297.53;;;8.83;48.25
4346;BME280;2186;49.866;7.986;2023-04-03T15:27:37;101302.78;;;8.90;49.85
4346;BME280;2186;49.866;7.986;2023-04-03T15:30:05;101303.63;;;9.00;50.29